Piscataquog River @ Goffstown, Nh

Piscataquog River at Goffstown
 Total Drainage Area: 202 sq. miles 
 Drainage Area Controlled by Corps Dams: 64 sq. miles (32%) 
 Warning Flow/Stage: 1,180 cfs / 6.0 feet 
 Flood Flow/Stage: 3,660 cfs / 8.5 feet 
Date Time
(Eastern)
Stage
(ft)
Flow
(cfs)
CSM
(cfs / sq. mi.)
Jun-16 07:30 pm 3.63 85 .4
Jun-16 06:30 pm 3.61 82 .4
Jun-16 05:30 pm 3.60 80 .4
Jun-16 04:30 pm 3.59 78 .4
Jun-16 03:30 pm 3.59 78 .4
Jun-16 02:30 pm 3.58 77 .4
Jun-16 01:30 pm 3.58 77 .4
Jun-16 12:30 pm 3.58 77 .4
Jun-16 11:30 am 3.60 80 .4
Jun-16 10:30 am 3.62 83 .4
Jun-16 09:30 am 3.62 83 .4
Jun-16 08:30 am 3.62 83 .4
Jun-16 07:30 am 3.62 83 .4
Jun-16 06:30 am 3.62 83 .4
Jun-16 05:30 am 3.62 83 .4
Jun-16 04:30 am 3.62 83 .4
Jun-16 03:30 am 3.62 83 .4
Jun-16 02:30 am 3.65 88 .4
Jun-16 01:30 am 3.72 100 .5
Jun-16 12:30 am 3.77 109 .5
Jun-15 11:30 pm 3.82 119 .6
Jun-15 10:30 pm 3.87 129 .6
Jun-15 09:30 pm 3.89 133 .7
Jun-15 08:30 pm 3.91 137 .7
Jun-15 07:30 pm 3.95 146 .7
Report Generated June 17, 2024 12:38 am